sensor_id;sensor_type;location;lat;lon;timestamp;P1;durP1;ratioP1;P2;durP2;ratioP2
23578;SDS011;11967;50.852;4.400;2022-09-09T00:00:28;3.30;;;1.23;;
23578;SDS011;11967;50.852;4.400;2022-09-09T00:08:46;3.35;;;1.30;;
23578;SDS011;11967;50.852;4.400;2022-09-09T00:11:21;4.95;;;1.38;;
23578;SDS011;11967;50.852;4.400;2022-09-09T00:13:52;5.75;;;1.27;;
23578;SDS011;11967;50.852;4.400;2022-09-09T00:16:22;4.20;;;1.15;;
23578;SDS011;11967;50.852;4.400;2022-09-09T00:18:55;5.70;;;1.00;;
23578;SDS011;11967;50.852;4.400;2022-09-09T00:23:57;4.22;;;1.10;;
23578;SDS011;11967;50.852;4.400;2022-09-09T00:31:43;6.68;;;1.52;;
23578;SDS011;11967;50.852;4.400;2022-09-09T00:36:38;6.53;;;1.25;;
23578;SDS011;11967;50.852;4.400;2022-09-09T00:39:05;5.63;;;1.35;;
23578;SDS011;11967;50.852;4.400;2022-09-09T00:41:40;4.45;;;1.10;;
23578;SDS011;11967;50.852;4.400;2022-09-09T00:47:09;8.25;;;1.48;;
23578;SDS011;11967;50.852;4.400;2022-09-09T00:55:30;3.83;;;1.08;;
23578;SDS011;11967;50.852;4.400;2022-09-09T00:58:22;3.35;;;1.02;;
23578;SDS011;11967;50.852;4.400;2022-09-09T01:00:52;8.23;;;1.13;;
23578;SDS011;11967;50.852;4.400;2022-09-09T01:08:35;7.18;;;1.33;;
23578;SDS011;11967;50.852;4.400;2022-09-09T01:11:25;4.47;;;1.05;;
23578;SDS011;11967;50.852;4.400;2022-09-09T01:14:01;8.23;;;1.30;;
23578;SDS011;11967;50.852;4.400;2022-09-09T01:17:07;6.88;;;1.35;;
23578;SDS011;11967;50.852;4.400;2022-09-09T01:27:20;4.57;;;1.10;;
23578;SDS011;11967;50.852;4.400;2022-09-09T01:29:48;8.85;;;1.58;;
23578;SDS011;11967;50.852;4.400;2022-09-09T01:35:16;5.70;;;1.75;;
23578;SDS011;11967;50.852;4.400;2022-09-09T01:37:46;5.53;;;1.30;;
23578;SDS011;11967;50.852;4.400;2022-09-09T01:40:12;7.32;;;1.42;;
23578;SDS011;11967;50.852;4.400;2022-09-09T01:42:37;4.22;;;1.33;;
23578;SDS011;11967;50.852;4.400;2022-09-09T01:45:03;6.45;;;1.50;;
23578;SDS011;11967;50.852;4.400;2022-09-09T01:47:30;6.85;;;1.48;;
23578;SDS011;11967;50.852;4.400;2022-09-09T01:49:55;5.43;;;1.50;;
23578;SDS011;11967;50.852;4.400;2022-09-09T01:52:21;8.70;;;1.50;;
23578;SDS011;11967;50.852;4.400;2022-09-09T01:54:47;6.20;;;1.58;;
23578;SDS011;11967;50.852;4.400;2022-09-09T01:57:47;8.20;;;1.58;;
23578;SDS011;11967;50.852;4.400;2022-09-09T02:00:39;9.57;;;1.33;;
23578;SDS011;11967;50.852;4.400;2022-09-09T02:03:23;8.27;;;1.50;;
23578;SDS011;11967;50.852;4.400;2022-09-09T02:05:55;5.32;;;1.55;;
23578;SDS011;11967;50.852;4.400;2022-09-09T02:08:42;10.63;;;1.90;;
23578;SDS011;11967;50.852;4.400;2022-09-09T02:11:13;6.05;;;1.55;;
23578;SDS011;11967;50.852;4.400;2022-09-09T02:13:40;9.57;;;1.85;;
23578;SDS011;11967;50.852;4.400;2022-09-09T02:16:10;5.63;;;1.40;;
23578;SDS011;11967;50.852;4.400;2022-09-09T02:19:00;6.78;;;1.45;;
23578;SDS011;11967;50.852;4.400;2022-09-09T02:21:31;9.02;;;1.77;;
23578;SDS011;11967;50.852;4.400;2022-09-09T02:24:00;6.07;;;1.70;;
23578;SDS011;11967;50.852;4.400;2022-09-09T02:26:29;13.70;;;1.95;;
23578;SDS011;11967;50.852;4.400;2022-09-09T02:28:59;12.13;;;2.10;;
23578;SDS011;11967;50.852;4.400;2022-09-09T02:31:28;6.57;;;1.95;;
23578;SDS011;11967;50.852;4.400;2022-09-09T02:33:55;10.05;;;1.70;;
23578;SDS011;11967;50.852;4.400;2022-09-09T02:36:25;11.43;;;1.90;;
23578;SDS011;11967;50.852;4.400;2022-09-09T02:39:05;9.98;;;2.22;;
23578;SDS011;11967;50.852;4.400;2022-09-09T02:41:35;12.15;;;1.70;;
23578;SDS011;11967;50.852;4.400;2022-09-09T02:44:05;10.52;;;2.13;;
23578;SDS011;11967;50.852;4.400;2022-09-09T02:49:43;10.80;;;1.90;;
23578;SDS011;11967;50.852;4.400;2022-09-09T02:52:47;11.00;;;2.13;;
23578;SDS011;11967;50.852;4.400;2022-09-09T02:58:12;10.40;;;2.20;;
23578;SDS011;11967;50.852;4.400;2022-09-09T03:00:42;9.95;;;2.20;;
23578;SDS011;11967;50.852;4.400;2022-09-09T03:03:08;11.00;;;2.05;;
23578;SDS011;11967;50.852;4.400;2022-09-09T03:05:34;9.10;;;2.05;;
23578;SDS011;11967;50.852;4.400;2022-09-09T03:08:00;11.80;;;1.90;;
23578;SDS011;11967;50.852;4.400;2022-09-09T03:10:28;7.47;;;1.73;;
23578;SDS011;11967;50.852;4.400;2022-09-09T03:12:53;6.50;;;1.50;;
23578;SDS011;11967;50.852;4.400;2022-09-09T03:15:20;10.05;;;1.90;;
23578;SDS011;11967;50.852;4.400;2022-09-09T03:17:46;10.98;;;1.80;;
23578;SDS011;11967;50.852;4.400;2022-09-09T03:20:12;9.68;;;1.88;;
23578;SDS011;11967;50.852;4.400;2022-09-09T03:22:37;9.05;;;1.80;;
23578;SDS011;11967;50.852;4.400;2022-09-09T03:25:03;10.48;;;1.92;;
23578;SDS011;11967;50.852;4.400;2022-09-09T03:27:30;8.43;;;2.08;;
23578;SDS011;11967;50.852;4.400;2022-09-09T03:29:56;11.13;;;1.98;;
23578;SDS011;11967;50.852;4.400;2022-09-09T03:32:22;12.02;;;2.05;;
23578;SDS011;11967;50.852;4.400;2022-09-09T03:34:50;8.98;;;1.70;;
23578;SDS011;11967;50.852;4.400;2022-09-09T03:37:17;11.18;;;2.25;;
23578;SDS011;11967;50.852;4.400;2022-09-09T03:39:43;11.77;;;1.92;;
23578;SDS011;11967;50.852;4.400;2022-09-09T03:42:09;11.07;;;1.95;;
23578;SDS011;11967;50.852;4.400;2022-09-09T03:44:39;10.18;;;1.80;;
23578;SDS011;11967;50.852;4.400;2022-09-09T03:47:05;10.43;;;1.80;;
23578;SDS011;11967;50.852;4.400;2022-09-09T03:49:31;6.85;;;1.70;;
23578;SDS011;11967;50.852;4.400;2022-09-09T03:51:56;9.45;;;2.03;;
23578;SDS011;11967;50.852;4.400;2022-09-09T03:54:23;9.23;;;2.00;;
23578;SDS011;11967;50.852;4.400;2022-09-09T03:56:49;13.95;;;1.90;;
23578;SDS011;11967;50.852;4.400;2022-09-09T03:59:15;13.60;;;2.85;;
23578;SDS011;11967;50.852;4.400;2022-09-09T04:01:41;12.65;;;2.60;;
23578;SDS011;11967;50.852;4.400;2022-09-09T04:04:06;11.10;;;2.08;;
23578;SDS011;11967;50.852;4.400;2022-09-09T04:06:32;8.43;;;2.30;;
23578;SDS011;11967;50.852;4.400;2022-09-09T04:08:59;11.13;;;2.13;;
23578;SDS011;11967;50.852;4.400;2022-09-09T04:11:24;10.38;;;1.95;;
23578;SDS011;11967;50.852;4.400;2022-09-09T04:13:50;7.45;;;1.77;;
23578;SDS011;11967;50.852;4.400;2022-09-09T04:16:16;9.30;;;1.92;;
23578;SDS011;11967;50.852;4.400;2022-09-09T04:18:41;11.25;;;1.95;;
23578;SDS011;11967;50.852;4.400;2022-09-09T04:21:08;10.75;;;2.08;;
23578;SDS011;11967;50.852;4.400;2022-09-09T04:23:35;9.30;;;2.20;;
23578;SDS011;11967;50.852;4.400;2022-09-09T04:26:01;11.27;;;2.60;;
23578;SDS011;11967;50.852;4.400;2022-09-09T04:28:28;10.70;;;2.55;;
23578;SDS011;11967;50.852;4.400;2022-09-09T04:30:55;10.00;;;2.20;;
23578;SDS011;11967;50.852;4.400;2022-09-09T04:33:27;10.63;;;1.92;;
23578;SDS011;11967;50.852;4.400;2022-09-09T04:35:53;13.95;;;2.22;;
23578;SDS011;11967;50.852;4.400;2022-09-09T04:38:18;13.88;;;2.40;;
23578;SDS011;11967;50.852;4.400;2022-09-09T04:40:49;10.02;;;2.40;;
23578;SDS011;11967;50.852;4.400;2022-09-09T04:43:16;10.43;;;2.22;;
23578;SDS011;11967;50.852;4.400;2022-09-09T04:45:43;15.55;;;2.33;;
23578;SDS011;11967;50.852;4.400;2022-09-09T04:48:12;13.65;;;2.22;;
23578;SDS011;11967;50.852;4.400;2022-09-09T04:50:37;14.93;;;2.53;;
23578;SDS011;11967;50.852;4.400;2022-09-09T04:53:03;13.20;;;2.60;;
23578;SDS011;11967;50.852;4.400;2022-09-09T04:55:31;13.05;;;2.88;;
23578;SDS011;11967;50.852;4.400;2022-09-09T04:57:57;15.50;;;2.60;;
23578;SDS011;11967;50.852;4.400;2022-09-09T05:00:23;12.55;;;2.35;;
23578;SDS011;11967;50.852;4.400;2022-09-09T05:02:49;12.32;;;2.45;;
23578;SDS011;11967;50.852;4.400;2022-09-09T05:05:16;11.57;;;2.47;;
23578;SDS011;11967;50.852;4.400;2022-09-09T05:07:43;13.07;;;2.58;;
23578;SDS011;11967;50.852;4.400;2022-09-09T05:10:09;13.23;;;2.60;;
23578;SDS011;11967;50.852;4.400;2022-09-09T05:12:35;13.45;;;2.55;;
23578;SDS011;11967;50.852;4.400;2022-09-09T05:15:01;9.82;;;2.28;;
23578;SDS011;11967;50.852;4.400;2022-09-09T05:17:27;10.55;;;2.20;;
23578;SDS011;11967;50.852;4.400;2022-09-09T05:19:53;11.35;;;2.20;;
23578;SDS011;11967;50.852;4.400;2022-09-09T05:22:21;11.52;;;2.40;;
23578;SDS011;11967;50.852;4.400;2022-09-09T05:24:48;13.25;;;2.58;;
23578;SDS011;11967;50.852;4.400;2022-09-09T05:27:15;9.68;;;2.40;;
23578;SDS011;11967;50.852;4.400;2022-09-09T05:29:43;17.02;;;2.75;;
23578;SDS011;11967;50.852;4.400;2022-09-09T05:32:09;11.77;;;2.55;;
23578;SDS011;11967;50.852;4.400;2022-09-09T05:34:35;12.38;;;2.30;;
23578;SDS011;11967;50.852;4.400;2022-09-09T05:37:02;17.85;;;3.05;;
23578;SDS011;11967;50.852;4.400;2022-09-09T05:39:29;15.95;;;2.50;;
23578;SDS011;11967;50.852;4.400;2022-09-09T05:41:55;13.05;;;2.72;;
23578;SDS011;11967;50.852;4.400;2022-09-09T05:44:20;11.20;;;2.45;;
23578;SDS011;11967;50.852;4.400;2022-09-09T05:46:48;13.77;;;2.28;;
23578;SDS011;11967;50.852;4.400;2022-09-09T05:49:14;11.13;;;2.20;;
23578;SDS011;11967;50.852;4.400;2022-09-09T05:51:40;12.65;;;2.50;;
23578;SDS011;11967;50.852;4.400;2022-09-09T05:54:07;12.50;;;2.10;;
23578;SDS011;11967;50.852;4.400;2022-09-09T05:56:33;10.80;;;2.40;;
23578;SDS011;11967;50.852;4.400;2022-09-09T05:58:59;16.83;;;2.75;;
23578;SDS011;11967;50.852;4.400;2022-09-09T06:01:26;12.20;;;2.20;;
23578;SDS011;11967;50.852;4.400;2022-09-09T06:03:56;10.98;;;2.72;;
23578;SDS011;11967;50.852;4.400;2022-09-09T06:06:23;12.38;;;2.20;;
23578;SDS011;11967;50.852;4.400;2022-09-09T06:08:51;13.15;;;2.47;;
23578;SDS011;11967;50.852;4.400;2022-09-09T06:11:23;14.18;;;2.22;;
23578;SDS011;11967;50.852;4.400;2022-09-09T06:13:51;15.60;;;2.58;;
23578;SDS011;11967;50.852;4.400;2022-09-09T06:16:19;12.38;;;2.75;;
23578;SDS011;11967;50.852;4.400;2022-09-09T06:18:50;14.43;;;2.10;;
23578;SDS011;11967;50.852;4.400;2022-09-09T06:21:17;15.60;;;2.53;;
23578;SDS011;11967;50.852;4.400;2022-09-09T06:23:45;13.02;;;2.55;;
23578;SDS011;11967;50.852;4.400;2022-09-09T06:26:16;10.48;;;2.00;;
23578;SDS011;11967;50.852;4.400;2022-09-09T06:28:43;8.57;;;2.17;;
23578;SDS011;11967;50.852;4.400;2022-09-09T06:31:11;12.88;;;2.30;;
23578;SDS011;11967;50.852;4.400;2022-09-09T06:33:41;16.27;;;2.33;;
23578;SDS011;11967;50.852;4.400;2022-09-09T06:36:11;10.73;;;2.47;;
23578;SDS011;11967;50.852;4.400;2022-09-09T06:38:39;9.80;;;2.20;;
23578;SDS011;11967;50.852;4.400;2022-09-09T06:41:10;10.05;;;2.50;;
23578;SDS011;11967;50.852;4.400;2022-09-09T06:43:37;11.63;;;2.30;;
23578;SDS011;11967;50.852;4.400;2022-09-09T06:46:04;21.67;;;3.00;;
23578;SDS011;11967;50.852;4.400;2022-09-09T06:48:33;13.68;;;2.20;;
23578;SDS011;11967;50.852;4.400;2022-09-09T06:51:06;10.88;;;2.75;;
23578;SDS011;11967;50.852;4.400;2022-09-09T06:53:36;13.73;;;2.40;;
23578;SDS011;11967;50.852;4.400;2022-09-09T06:56:17;11.45;;;2.20;;
23578;SDS011;11967;50.852;4.400;2022-09-09T06:58:46;12.15;;;2.38;;
23578;SDS011;11967;50.852;4.400;2022-09-09T07:01:15;10.00;;;2.35;;
23578;SDS011;11967;50.852;4.400;2022-09-09T07:03:42;15.27;;;2.78;;
23578;SDS011;11967;50.852;4.400;2022-09-09T07:06:13;17.98;;;2.72;;
23578;SDS011;11967;50.852;4.400;2022-09-09T07:08:42;15.30;;;2.47;;
23578;SDS011;11967;50.852;4.400;2022-09-09T07:11:08;10.55;;;2.13;;
23578;SDS011;11967;50.852;4.400;2022-09-09T07:13:34;14.07;;;2.65;;
23578;SDS011;11967;50.852;4.400;2022-09-09T07:16:07;12.07;;;2.67;;
23578;SDS011;11967;50.852;4.400;2022-09-09T07:18:35;12.38;;;2.45;;
23578;SDS011;11967;50.852;4.400;2022-09-09T07:21:02;11.82;;;2.40;;
23578;SDS011;11967;50.852;4.400;2022-09-09T07:23:29;10.43;;;2.03;;
23578;SDS011;11967;50.852;4.400;2022-09-09T07:25:58;11.90;;;2.38;;
23578;SDS011;11967;50.852;4.400;2022-09-09T07:28:25;16.20;;;2.50;;
23578;SDS011;11967;50.852;4.400;2022-09-09T07:30:58;8.18;;;1.67;;
23578;SDS011;11967;50.852;4.400;2022-09-09T07:33:29;9.23;;;2.45;;
23578;SDS011;11967;50.852;4.400;2022-09-09T07:36:04;9.75;;;2.05;;
23578;SDS011;11967;50.852;4.400;2022-09-09T07:38:44;9.50;;;2.47;;
23578;SDS011;11967;50.852;4.400;2022-09-09T07:41:16;12.38;;;2.45;;
23578;SDS011;11967;50.852;4.400;2022-09-09T07:43:45;10.48;;;2.13;;
23578;SDS011;11967;50.852;4.400;2022-09-09T07:46:13;10.45;;;2.45;;
23578;SDS011;11967;50.852;4.400;2022-09-09T07:48:43;12.05;;;2.35;;
23578;SDS011;11967;50.852;4.400;2022-09-09T07:51:14;9.27;;;2.28;;
23578;SDS011;11967;50.852;4.400;2022-09-09T07:53:45;9.43;;;1.92;;
23578;SDS011;11967;50.852;4.400;2022-09-09T07:56:14;9.85;;;2.10;;
23578;SDS011;11967;50.852;4.400;2022-09-09T07:58:48;8.80;;;2.40;;
23578;SDS011;11967;50.852;4.400;2022-09-09T08:01:15;8.77;;;2.15;;
23578;SDS011;11967;50.852;4.400;2022-09-09T08:03:52;10.57;;;2.40;;
23578;SDS011;11967;50.852;4.400;2022-09-09T08:06:26;8.85;;;1.90;;
23578;SDS011;11967;50.852;4.400;2022-09-09T08:08:54;8.43;;;2.10;;
23578;SDS011;11967;50.852;4.400;2022-09-09T08:11:20;10.35;;;2.55;;
23578;SDS011;11967;50.852;4.400;2022-09-09T08:13:48;14.40;;;2.70;;
23578;SDS011;11967;50.852;4.400;2022-09-09T08:16:18;11.70;;;2.60;;
23578;SDS011;11967;50.852;4.400;2022-09-09T08:18:47;13.55;;;2.58;;
23578;SDS011;11967;50.852;4.400;2022-09-09T08:21:15;18.65;;;2.80;;
23578;SDS011;11967;50.852;4.400;2022-09-09T08:23:43;11.43;;;2.83;;
23578;SDS011;11967;50.852;4.400;2022-09-09T08:26:14;13.45;;;2.78;;
23578;SDS011;11967;50.852;4.400;2022-09-09T08:28:42;14.52;;;2.38;;
23578;SDS011;11967;50.852;4.400;2022-09-09T08:31:13;12.10;;;2.20;;
23578;SDS011;11967;50.852;4.400;2022-09-09T08:33:41;12.53;;;2.60;;
23578;SDS011;11967;50.852;4.400;2022-09-09T08:36:11;11.57;;;2.60;;
23578;SDS011;11967;50.852;4.400;2022-09-09T08:38:48;9.98;;;2.33;;
23578;SDS011;11967;50.852;4.400;2022-09-09T08:43:45;11.70;;;2.78;;
23578;SDS011;11967;50.852;4.400;2022-09-09T08:48:56;9.55;;;2.50;;
23578;SDS011;11967;50.852;4.400;2022-09-09T08:51:36;8.63;;;2.13;;
23578;SDS011;11967;50.852;4.400;2022-09-09T08:54:02;8.93;;;2.50;;
23578;SDS011;11967;50.852;4.400;2022-09-09T08:56:30;12.35;;;2.50;;
23578;SDS011;11967;50.852;4.400;2022-09-09T08:58:56;11.95;;;2.67;;
23578;SDS011;11967;50.852;4.400;2022-09-09T09:12:01;13.82;;;3.13;;
23578;SDS011;11967;50.852;4.400;2022-09-09T09:14:34;9.73;;;2.25;;
23578;SDS011;11967;50.852;4.400;2022-09-09T09:17:06;17.80;;;2.70;;
23578;SDS011;11967;50.852;4.400;2022-09-09T09:19:38;11.43;;;2.50;;
23578;SDS011;11967;50.852;4.400;2022-09-09T09:25:18;8.90;;;2.25;;
23578;SDS011;11967;50.852;4.400;2022-09-09T09:30:26;9.75;;;2.03;;
23578;SDS011;11967;50.852;4.400;2022-09-09T09:33:15;7.60;;;2.33;;
23578;SDS011;11967;50.852;4.400;2022-09-09T09:35:48;14.43;;;3.15;;
23578;SDS011;11967;50.852;4.400;2022-09-09T09:38:16;11.65;;;2.42;;
23578;SDS011;11967;50.852;4.400;2022-09-09T09:40:51;11.20;;;2.00;;
23578;SDS011;11967;50.852;4.400;2022-09-09T09:43:22;8.82;;;2.80;;
23578;SDS011;11967;50.852;4.400;2022-09-09T09:45:51;7.90;;;1.73;;
23578;SDS011;11967;50.852;4.400;2022-09-09T09:48:17;7.93;;;2.28;;
23578;SDS011;11967;50.852;4.400;2022-09-09T09:50:46;8.73;;;2.42;;
23578;SDS011;11967;50.852;4.400;2022-09-09T09:53:32;10.75;;;2.42;;
23578;SDS011;11967;50.852;4.400;2022-09-09T09:56:00;9.90;;;2.53;;
23578;SDS011;11967;50.852;4.400;2022-09-09T09:58:27;12.85;;;2.75;;
23578;SDS011;11967;50.852;4.400;2022-09-09T10:00:57;10.07;;;2.22;;
23578;SDS011;11967;50.852;4.400;2022-09-09T10:03:29;11.27;;;2.45;;
23578;SDS011;11967;50.852;4.400;2022-09-09T10:05:56;9.90;;;2.25;;
23578;SDS011;11967;50.852;4.400;2022-09-09T10:08:26;12.75;;;2.75;;
23578;SDS011;11967;50.852;4.400;2022-09-09T10:11:05;14.45;;;2.85;;
23578;SDS011;11967;50.852;4.400;2022-09-09T10:24:54;9.43;;;2.22;;
23578;SDS011;11967;50.852;4.400;2022-09-09T10:27:46;9.57;;;2.65;;
23578;SDS011;11967;50.852;4.400;2022-09-09T10:35:40;9.88;;;2.67;;
23578;SDS011;11967;50.852;4.400;2022-09-09T10:43:46;11.70;;;3.05;;
23578;SDS011;11967;50.852;4.400;2022-09-09T10:49:26;11.20;;;2.60;;
23578;SDS011;11967;50.852;4.400;2022-09-09T10:55:16;12.73;;;2.35;;
23578;SDS011;11967;50.852;4.400;2022-09-09T11:00:15;10.23;;;2.45;;
23578;SDS011;11967;50.852;4.400;2022-09-09T11:02:52;10.65;;;2.47;;
23578;SDS011;11967;50.852;4.400;2022-09-09T11:08:18;12.93;;;2.50;;
23578;SDS011;11967;50.852;4.400;2022-09-09T11:10:49;12.13;;;2.42;;
23578;SDS011;11967;50.852;4.400;2022-09-09T11:13:40;9.45;;;2.65;;
23578;SDS011;11967;50.852;4.400;2022-09-09T11:16:25;11.05;;;2.55;;
23578;SDS011;11967;50.852;4.400;2022-09-09T11:19:09;11.85;;;2.30;;
23578;SDS011;11967;50.852;4.400;2022-09-09T11:21:44;10.77;;;2.08;;
23578;SDS011;11967;50.852;4.400;2022-09-09T11:24:20;11.73;;;2.38;;
23578;SDS011;11967;50.852;4.400;2022-09-09T11:27:00;9.93;;;2.17;;
23578;SDS011;11967;50.852;4.400;2022-09-09T11:35:24;9.75;;;2.10;;
23578;SDS011;11967;50.852;4.400;2022-09-09T11:40:56;9.55;;;2.38;;
23578;SDS011;11967;50.852;4.400;2022-09-09T11:43:41;9.93;;;1.95;;
23578;SDS011;11967;50.852;4.400;2022-09-09T11:46:09;11.80;;;2.03;;
23578;SDS011;11967;50.852;4.400;2022-09-09T11:48:38;8.40;;;1.90;;
23578;SDS011;11967;50.852;4.400;2022-09-09T11:51:10;7.45;;;1.92;;
23578;SDS011;11967;50.852;4.400;2022-09-09T11:53:51;5.50;;;2.00;;
23578;SDS011;11967;50.852;4.400;2022-09-09T11:59:03;5.28;;;2.05;;
23578;SDS011;11967;50.852;4.400;2022-09-09T12:06:32;8.80;;;2.08;;
23578;SDS011;11967;50.852;4.400;2022-09-09T12:09:08;9.18;;;2.25;;
23578;SDS011;11967;50.852;4.400;2022-09-09T12:11:41;5.72;;;1.75;;
23578;SDS011;11967;50.852;4.400;2022-09-09T12:14:20;12.40;;;2.58;;
23578;SDS011;11967;50.852;4.400;2022-09-09T12:16:47;9.95;;;2.33;;
23578;SDS011;11967;50.852;4.400;2022-09-09T12:24:11;11.48;;;2.47;;
23578;SDS011;11967;50.852;4.400;2022-09-09T12:26:56;8.77;;;2.10;;
23578;SDS011;11967;50.852;4.400;2022-09-09T12:29:51;8.48;;;2.03;;
23578;SDS011;11967;50.852;4.400;2022-09-09T12:32:34;8.20;;;2.13;;
23578;SDS011;11967;50.852;4.400;2022-09-09T12:35:02;9.80;;;2.25;;
23578;SDS011;11967;50.852;4.400;2022-09-09T12:37:58;8.23;;;2.60;;
23578;SDS011;11967;50.852;4.400;2022-09-09T12:40:32;9.35;;;2.08;;
23578;SDS011;11967;50.852;4.400;2022-09-09T12:43:00;9.82;;;2.05;;
23578;SDS011;11967;50.852;4.400;2022-09-09T12:45:30;10.40;;;1.92;;
23578;SDS011;11967;50.852;4.400;2022-09-09T12:47:59;7.13;;;1.92;;
23578;SDS011;11967;50.852;4.400;2022-09-09T12:50:33;10.18;;;2.30;;
23578;SDS011;11967;50.852;4.400;2022-09-09T12:53:06;13.13;;;3.15;;
23578;SDS011;11967;50.852;4.400;2022-09-09T12:55:36;10.55;;;2.65;;
23578;SDS011;11967;50.852;4.400;2022-09-09T12:58:03;6.88;;;2.22;;
23578;SDS011;11967;50.852;4.400;2022-09-09T13:00:31;7.38;;;1.80;;
23578;SDS011;11967;50.852;4.400;2022-09-09T13:02:59;6.20;;;1.50;;
23578;SDS011;11967;50.852;4.400;2022-09-09T13:05:37;10.45;;;1.80;;
23578;SDS011;11967;50.852;4.400;2022-09-09T13:08:08;6.00;;;1.73;;
23578;SDS011;11967;50.852;4.400;2022-09-09T13:10:36;6.50;;;1.67;;
23578;SDS011;11967;50.852;4.400;2022-09-09T13:13:13;9.73;;;1.98;;
23578;SDS011;11967;50.852;4.400;2022-09-09T13:15:49;6.45;;;1.83;;
23578;SDS011;11967;50.852;4.400;2022-09-09T13:18:21;7.10;;;1.70;;
23578;SDS011;11967;50.852;4.400;2022-09-09T13:20:49;7.18;;;1.70;;
23578;SDS011;11967;50.852;4.400;2022-09-09T13:23:16;6.38;;;1.70;;
23578;SDS011;11967;50.852;4.400;2022-09-09T13:25:57;6.35;;;1.77;;
23578;SDS011;11967;50.852;4.400;2022-09-09T13:28:27;6.07;;;1.90;;
23578;SDS011;11967;50.852;4.400;2022-09-09T13:31:02;8.90;;;1.88;;
23578;SDS011;11967;50.852;4.400;2022-09-09T13:33:39;7.57;;;2.25;;
23578;SDS011;11967;50.852;4.400;2022-09-09T13:36:06;7.68;;;1.70;;
23578;SDS011;11967;50.852;4.400;2022-09-09T13:41:21;5.68;;;1.88;;
23578;SDS011;11967;50.852;4.400;2022-09-09T13:43:49;5.32;;;1.45;;
23578;SDS011;11967;50.852;4.400;2022-09-09T13:46:28;4.22;;;1.45;;
23578;SDS011;11967;50.852;4.400;2022-09-09T13:48:59;5.00;;;1.75;;
23578;SDS011;11967;50.852;4.400;2022-09-09T13:51:35;5.25;;;1.90;;
23578;SDS011;11967;50.852;4.400;2022-09-09T13:54:13;5.40;;;1.90;;
23578;SDS011;11967;50.852;4.400;2022-09-09T13:56:40;3.53;;;1.40;;
23578;SDS011;11967;50.852;4.400;2022-09-09T13:59:13;5.90;;;1.50;;
23578;SDS011;11967;50.852;4.400;2022-09-09T14:01:44;7.03;;;1.65;;
23578;SDS011;11967;50.852;4.400;2022-09-09T14:04:10;6.25;;;1.48;;
23578;SDS011;11967;50.852;4.400;2022-09-09T14:06:36;6.50;;;1.50;;
23578;SDS011;11967;50.852;4.400;2022-09-09T14:09:04;6.22;;;1.80;;
23578;SDS011;11967;50.852;4.400;2022-09-09T14:11:31;7.15;;;1.58;;
23578;SDS011;11967;50.852;4.400;2022-09-09T14:13:56;5.78;;;1.60;;
23578;SDS011;11967;50.852;4.400;2022-09-09T14:16:22;8.95;;;1.98;;
23578;SDS011;11967;50.852;4.400;2022-09-09T14:18:48;4.85;;;1.67;;
23578;SDS011;11967;50.852;4.400;2022-09-09T14:21:13;7.32;;;2.08;;
23578;SDS011;11967;50.852;4.400;2022-09-09T14:23:40;6.57;;;1.70;;
23578;SDS011;11967;50.852;4.400;2022-09-09T14:26:06;5.63;;;1.52;;
23578;SDS011;11967;50.852;4.400;2022-09-09T14:28:32;4.30;;;1.63;;
23578;SDS011;11967;50.852;4.400;2022-09-09T14:31:02;8.77;;;1.90;;
23578;SDS011;11967;50.852;4.400;2022-09-09T14:33:29;6.55;;;2.00;;
23578;SDS011;11967;50.852;4.400;2022-09-09T14:35:58;5.68;;;1.73;;
23578;SDS011;11967;50.852;4.400;2022-09-09T14:38:26;5.82;;;1.63;;
23578;SDS011;11967;50.852;4.400;2022-09-09T14:40:54;7.22;;;2.08;;
23578;SDS011;11967;50.852;4.400;2022-09-09T14:43:21;4.28;;;1.63;;
23578;SDS011;11967;50.852;4.400;2022-09-09T14:45:47;6.85;;;1.90;;
23578;SDS011;11967;50.852;4.400;2022-09-09T14:48:16;6.68;;;1.70;;
23578;SDS011;11967;50.852;4.400;2022-09-09T14:50:42;5.85;;;1.83;;
23578;SDS011;11967;50.852;4.400;2022-09-09T14:53:08;8.25;;;1.95;;
23578;SDS011;11967;50.852;4.400;2022-09-09T14:55:35;8.57;;;1.58;;
23578;SDS011;11967;50.852;4.400;2022-09-09T14:58:01;6.45;;;1.50;;
23578;SDS011;11967;50.852;4.400;2022-09-09T15:00:27;5.47;;;1.45;;
23578;SDS011;11967;50.852;4.400;2022-09-09T15:02:53;7.13;;;1.77;;
23578;SDS011;11967;50.852;4.400;2022-09-09T15:05:19;6.47;;;1.73;;
23578;SDS011;11967;50.852;4.400;2022-09-09T15:07:45;9.10;;;2.00;;
23578;SDS011;11967;50.852;4.400;2022-09-09T15:10:11;6.50;;;2.00;;
23578;SDS011;11967;50.852;4.400;2022-09-09T15:12:37;5.65;;;1.50;;
23578;SDS011;11967;50.852;4.400;2022-09-09T15:15:03;7.25;;;2.13;;
23578;SDS011;11967;50.852;4.400;2022-09-09T15:17:29;5.60;;;1.58;;
23578;SDS011;11967;50.852;4.400;2022-09-09T15:19:56;6.57;;;1.77;;
23578;SDS011;11967;50.852;4.400;2022-09-09T15:22:21;8.75;;;1.83;;
23578;SDS011;11967;50.852;4.400;2022-09-09T15:24:49;5.43;;;2.00;;
23578;SDS011;11967;50.852;4.400;2022-09-09T15:27:14;3.72;;;1.65;;
23578;SDS011;11967;50.852;4.400;2022-09-09T15:29:40;6.72;;;1.73;;
23578;SDS011;11967;50.852;4.400;2022-09-09T15:32:06;6.95;;;1.77;;
23578;SDS011;11967;50.852;4.400;2022-09-09T15:34:32;6.55;;;1.83;;
23578;SDS011;11967;50.852;4.400;2022-09-09T15:36:58;6.60;;;1.63;;
23578;SDS011;11967;50.852;4.400;2022-09-09T15:39:25;8.80;;;2.08;;
23578;SDS011;11967;50.852;4.400;2022-09-09T15:41:50;9.80;;;2.13;;
23578;SDS011;11967;50.852;4.400;2022-09-09T15:44:16;5.25;;;1.70;;
23578;SDS011;11967;50.852;4.400;2022-09-09T15:46:52;7.35;;;1.73;;
23578;SDS011;11967;50.852;4.400;2022-09-09T15:49:25;5.25;;;1.50;;
23578;SDS011;11967;50.852;4.400;2022-09-09T15:51:55;6.93;;;2.15;;
23578;SDS011;11967;50.852;4.400;2022-09-09T15:54:23;6.05;;;1.70;;
23578;SDS011;11967;50.852;4.400;2022-09-09T15:56:51;8.70;;;2.00;;
23578;SDS011;11967;50.852;4.400;2022-09-09T15:59:21;7.50;;;1.95;;
23578;SDS011;11967;50.852;4.400;2022-09-09T16:01:48;7.28;;;1.60;;
23578;SDS011;11967;50.852;4.400;2022-09-09T16:04:16;8.02;;;2.10;;
23578;SDS011;11967;50.852;4.400;2022-09-09T16:06:51;5.68;;;1.77;;
23578;SDS011;11967;50.852;4.400;2022-09-09T16:09:25;7.35;;;2.33;;
23578;SDS011;11967;50.852;4.400;2022-09-09T16:11:52;6.30;;;2.13;;
23578;SDS011;11967;50.852;4.400;2022-09-09T16:14:18;4.75;;;1.80;;
23578;SDS011;11967;50.852;4.400;2022-09-09T16:16:44;6.50;;;2.22;;
23578;SDS011;11967;50.852;4.400;2022-09-09T16:19:11;6.43;;;2.05;;
23578;SDS011;11967;50.852;4.400;2022-09-09T16:21:38;7.53;;;2.25;;
23578;SDS011;11967;50.852;4.400;2022-09-09T16:24:07;6.00;;;2.15;;
23578;SDS011;11967;50.852;4.400;2022-09-09T16:26:35;7.53;;;2.00;;
23578;SDS011;11967;50.852;4.400;2022-09-09T16:29:02;8.35;;;2.38;;
23578;SDS011;11967;50.852;4.400;2022-09-09T16:31:29;6.97;;;1.95;;
23578;SDS011;11967;50.852;4.400;2022-09-09T16:33:56;7.28;;;2.17;;
23578;SDS011;11967;50.852;4.400;2022-09-09T16:36:24;5.97;;;1.75;;
23578;SDS011;11967;50.852;4.400;2022-09-09T16:38:54;4.50;;;1.23;;
23578;SDS011;11967;50.852;4.400;2022-09-09T16:41:22;6.47;;;1.65;;
23578;SDS011;11967;50.852;4.400;2022-09-09T16:43:59;6.30;;;1.70;;
23578;SDS011;11967;50.852;4.400;2022-09-09T16:46:28;5.95;;;1.65;;
23578;SDS011;11967;50.852;4.400;2022-09-09T16:48:59;3.80;;;1.73;;
23578;SDS011;11967;50.852;4.400;2022-09-09T16:51:27;6.18;;;1.88;;
23578;SDS011;11967;50.852;4.400;2022-09-09T16:53:54;5.88;;;1.75;;
23578;SDS011;11967;50.852;4.400;2022-09-09T16:56:24;5.60;;;1.83;;
23578;SDS011;11967;50.852;4.400;2022-09-09T16:58:52;8.60;;;2.03;;
23578;SDS011;11967;50.852;4.400;2022-09-09T17:01:20;4.75;;;1.80;;
23578;SDS011;11967;50.852;4.400;2022-09-09T17:03:46;4.72;;;1.85;;
23578;SDS011;11967;50.852;4.400;2022-09-09T17:06:13;6.15;;;2.13;;